Flight Track Log - Related Links

Times and Time Zones

All times are in EDT time to prevent confusion due to time zone crossing. See the N516JB flight status page for this flight to view local times or setup timezone preferences in your user account.

Time Position Orientation Groundspeed Altitude Reporting Facility
EDT Latitude Longitude Course Direction KTS MPH feet Rate Location/Type
Mon 07:40:32 AM 29.6414 -95.2102 264° West  Level FlightAware Approximate
Mon 07:40:50 AM 29.6339 -95.2936 97° East 164 189 700  Level Houston Center
Mon 07:46:02 AM 29.5936 -94.9075 76° East 356 410 11,500 2,113 Climbing Houston Center
Mon 07:47:02 AM 29.6192 -94.7889 76° East 370 426 13,800 2,132 Climbing Houston Center
Mon 07:48:03 AM 29.6450 -94.6653 86° East 386 444 15,800 1,934 Climbing Houston Center
Mon 07:49:03 AM 29.6519 -94.5367 85° East 392 451 17,700 1,866 Climbing Houston Center
Mon 07:50:02 AM 29.6611 -94.4031 86° East 417 480 19,500 1,765 Climbing Houston Center
Mon 07:51:02 AM 29.6700 -94.2644 85° East 423 487 21,200 1,488 Climbing Houston Center
Mon 07:52:03 AM 29.6786 -94.1453 86° East 422 486 22,500 1,300 Climbing Houston Center
Mon 07:53:02 AM 29.6872 -94.0019 73° East 422 486 23,800 1,350 Climbing Houston Center
Mon 07:54:03 AM 29.7253 -93.8594 72° East 437 503 25,200 1,339 Climbing Houston Center
Mon 07:55:03 AM 29.7694 -93.7000 73° East 449 517 26,500 1,150 Climbing Houston Center
Mon 07:56:03 AM 29.8025 -93.5786 72° East 455 524 27,500 908 Climbing Houston Center
Mon 07:57:02 AM 29.8442 -93.4283 73° East 460 529 28,300 850 Climbing Houston Center
Mon 07:58:03 AM 29.8836 -93.2831 72° East 471 542 29,200 1,140 Climbing Houston Center
Mon 07:59:03 AM 29.9250 -93.1325 72° East 481 554 30,600 1,311 Climbing Houston Center
Mon 08:00:02 AM 29.9661 -92.9844 73° East 481 554 31,800 1,200 Climbing Houston Center
Mon 08:01:03 AM 30.0050 -92.8411 72° East 476 548 33,000 1,091 Climbing Houston Center
Mon 08:02:03 AM 30.0503 -92.6786 72° East 476 548 34,000 857 Climbing Houston Center
Mon 08:03:02 AM 30.0908 -92.5325 74° East 481 554 34,700 504 Climbing Houston Center
Mon 08:04:02 AM 30.1272 -92.3886 73° East 481 554 35,000 149 Climbing Houston Center
Mon 08:05:03 AM 30.1656 -92.2400 73° East 481 554 35,000  Level Houston Center
Mon 08:06:03 AM 30.2058 -92.0911 74° East 481 554 35,000  Level Houston Center
Mon 08:07:02 AM 30.2436 -91.9422 73° East 481 554 35,000  Level Houston Center
Mon 08:08:03 AM 30.2836 -91.7933 72° East 475 547 35,000 -50 Level Houston Center
Mon 08:09:03 AM 30.3192 -91.6658 74° East 475 547 34,900  Descending Houston Center
Mon 08:10:03 AM 30.3567 -91.5167 73° East 475 547 35,000 50 Climbing Houston Center
Mon 08:11:02 AM 30.3961 -91.3697 74° East 481 554 35,000  Level Houston Center
Mon 08:12:03 AM 30.4333 -91.2203 73° East 481 554 35,000  Level Houston Center
Mon 08:13:03 AM 30.4725 -91.0708 74° East 481 554 35,000 -50 Level Houston Center
Mon 08:14:02 AM 30.5092 -90.9236 73° East 476 548 34,900  Descending Houston Center
Mon 08:15:03 AM 30.5481 -90.7761 75° East 481 554 35,000 50 Climbing Houston Center
Mon 08:16:03 AM 30.5825 -90.6286 73° East 476 548 35,000  Level Houston Center
Mon 08:17:03 AM 30.6208 -90.4786 73° East 481 554 35,000  Level Houston Center
Mon 08:18:02 AM 30.6592 -90.3286 74° East 481 554 35,000  Level Houston Center
Mon 08:19:03 AM 30.6953 -90.1808 74° East 476 548 35,000 -50 Level Houston Center
Mon 08:20:03 AM 30.7311 -90.0328 74° East 476 548 34,900 -50 Descending Houston Center
Mon 08:21:03 AM 30.7667 -89.8872 73° East 476 548 34,900  Level Houston Center
Mon 08:22:03 AM 30.8044 -89.7417 75° East 476 548 34,900 50 Level Houston Center
Mon 08:23:03 AM 30.8378 -89.5933 74° East 471 542 35,000 50 Climbing Houston Center
Mon 08:24:03 AM 30.8731 -89.4475 74° East 471 542 35,000  Level Houston Center
Mon 08:25:03 AM 30.9100 -89.2992 74° East 471 542 35,000  Level Houston Center
Mon 08:26:03 AM 30.9450 -89.1556 75° East 471 542 35,000  Level Houston Center
Mon 08:27:02 AM 30.9817 -88.9947 75° East 471 542 35,000  Level Houston Center
Mon 08:28:03 AM 31.0142 -88.8511 69° East 455 524 35,000  Level Houston Center
Mon 08:29:03 AM 31.0592 -88.7117 59° Northeast 455 524 35,000  Level Houston Center
Mon 08:30:03 AM 31.1272 -88.5786 59° Northeast 455 524 35,000  Level Houston Center
Mon 08:31:03 AM 31.1931 -88.4481 58° Northeast 463 533 35,000  Level Houston Center
Mon 08:32:03 AM 31.2628 -88.3172 60° Northeast 469 540 35,000  Level Houston Center
Mon 08:32:41 AM 31.3039 -88.2333 60° Northeast 479 551 35,000  Level Atlanta Center
Mon 08:33:41 AM 31.3711 -88.0978 60° Northeast 486 559 35,000  Level Atlanta Center
Mon 08:34:41 AM 31.4336 -87.9692 61° Northeast 473 544 35,000  Level Atlanta Center
Mon 08:35:53 AM 31.4961 -87.8381 60° Northeast 463 533 35,000  Level Atlanta Center
Mon 08:36:53 AM 31.5739 -87.6803 60° Northeast 463 533 35,000  Level Atlanta Center
Mon 08:37:53 AM 31.6406 -87.5464 60° Northeast 463 533 35,000  Level Atlanta Center
Mon 08:38:53 AM 31.7047 -87.4147 63° Northeast 463 533 35,000  Level Atlanta Center
Mon 08:39:53 AM 31.7625 -87.2825 60° Northeast 458 527 35,000  Level Atlanta Center
Mon 08:40:53 AM 31.8286 -87.1481 60° Northeast 458 527 35,000  Level Atlanta Center
Mon 08:41:53 AM 31.8922 -87.0206 62° Northeast 458 527 35,000  Level Atlanta Center
Mon 08:42:53 AM 31.9450 -86.9025 60° Northeast 453 521 35,000  Level Atlanta Center
Mon 08:43:53 AM 32.0108 -86.7697 59° Northeast 453 521 35,000  Level Atlanta Center
Mon 08:44:53 AM 32.0828 -86.6275 61° Northeast 453 521 35,000  Level Atlanta Center
Mon 08:46:05 AM 32.1436 -86.4992 62° Northeast 453 521 35,000  Level Atlanta Center
Mon 08:47:05 AM 32.2069 -86.3586 62° Northeast 453 521 35,000  Level Atlanta Center
Mon 08:48:05 AM 32.2700 -86.2153 57° Northeast 454 522 35,000  Level Atlanta Center
Mon 08:49:05 AM 32.3411 -86.0867 60° Northeast 448 516 35,000  Level Atlanta Center
Mon 08:50:05 AM 32.4017 -85.9625 58° Northeast 448 516 35,000  Level Atlanta Center
Mon 08:51:05 AM 32.4703 -85.8311 58° Northeast 443 510 35,000  Level Atlanta Center
Mon 08:52:05 AM 32.5389 -85.7019 60° Northeast 453 521 35,000  Level Atlanta Center
Mon 08:53:05 AM 32.6011 -85.5750 59° Northeast 451 519 35,000  Level Atlanta Center
Mon 08:54:05 AM 32.6589 -85.4600 58° Northeast 451 519 35,000  Level Atlanta Center
Mon 08:55:05 AM 32.7250 -85.3328 59° Northeast 451 519 35,000  Level Atlanta Center
Mon 08:56:17 AM 32.7889 -85.2050 59° Northeast 446 513 35,000  Level Atlanta Center
Mon 08:57:17 AM 32.8717 -85.0431 60° Northeast 440 506 35,000  Level Atlanta Center
Mon 08:58:17 AM 32.9333 -84.9150 59° Northeast 440 506 35,000  Level Atlanta Center
Mon 08:59:17 AM 32.9989 -84.7844 60° Northeast 445 512 35,000  Level Atlanta Center
Mon 09:00:17 AM 33.0600 -84.6561 60° Northeast 451 519 35,000  Level Atlanta Center
Mon 09:01:17 AM 33.1233 -84.5250 59° Northeast 444 511 35,000  Level Atlanta Center
Mon 09:02:17 AM 33.1883 -84.3964 61° Northeast 444 511 35,000  Level Atlanta Center
Mon 09:03:29 AM 33.2492 -84.2650 59° Northeast 444 511 35,000  Level Atlanta Center
Mon 09:04:29 AM 33.3289 -84.1083 60° Northeast 444 511 35,000  Level Atlanta Center
Mon 09:05:29 AM 33.3914 -83.9767 60° Northeast 444 511 35,000  Level Atlanta Center
Mon 09:06:29 AM 33.4539 -83.8469 60° Northeast 444 511 35,000  Level Atlanta Center
Mon 09:07:29 AM 33.5161 -83.7150 59° Northeast 449 517 35,000  Level Atlanta Center
Mon 09:08:29 AM 33.5806 -83.5850 61° Northeast 449 517 35,000  Level Atlanta Center
Mon 09:09:29 AM 33.6425 -83.4525 60° Northeast 449 517 35,000  Level Atlanta Center
Mon 09:10:29 AM 33.7044 -83.3222 59° Northeast 449 517 35,000  Level Atlanta Center
Mon 09:11:29 AM 33.7706 -83.1917 62° Northeast 449 517 35,000  Level Atlanta Center
Mon 09:12:29 AM 33.8300 -83.0586 60° Northeast 449 517 35,000  Level Atlanta Center
Mon 09:13:29 AM 33.8936 -82.9253 59° Northeast 449 517 35,000  Level Atlanta Center
Mon 09:14:29 AM 33.9508 -82.8092 64° Northeast 449 517 35,000  Level Atlanta Center
Mon 09:15:29 AM 33.9956 -82.7008 59° Northeast 449 517 35,000  Level Atlanta Center
Mon 09:16:29 AM 34.0711 -82.5467 60° Northeast 449 517 35,000  Level Atlanta Center
Mon 09:17:29 AM 34.1403 -82.4000 61° Northeast 449 517 35,000  Level Atlanta Center
Mon 09:18:29 AM 34.2008 -82.2656 61° Northeast 449 517 35,000  Level Atlanta Center
Mon 09:19:29 AM 34.2617 -82.1311 59° Northeast 449 517 35,000  Level Atlanta Center
Mon 09:20:29 AM 34.3261 -81.9989 58° Northeast 449 517 35,000  Level Atlanta Center
Mon 09:21:30 AM 34.3928 -81.8689 59° Northeast 449 517 35,000  Level Atlanta Center
Mon 09:22:30 AM 34.4572 -81.7386 58° Northeast 454 522 35,000  Level Atlanta Center
Mon 09:23:30 AM 34.5236 -81.6083 59° Northeast 449 517 35,000  Level Atlanta Center
Mon 09:24:29 AM 34.5878 -81.4778 58° Northeast 449 517 35,000  Level Atlanta Center
Mon 09:25:29 AM 34.6397 -81.3753 59° Northeast 449 517 35,000  Level Atlanta Center
Mon 09:26:29 AM 34.7097 -81.2314 59° Northeast 445 512 35,000  Level Atlanta Center
Mon 09:27:29 AM 34.7733 -81.1031 60° Northeast 445 512 35,000  Level Atlanta Center
Mon 09:28:29 AM 34.8369 -80.9692 59° Northeast 452 520 35,000  Level Atlanta Center
Mon 09:29:29 AM 34.9064 -80.8272 59° Northeast 447 514 35,000  Level Atlanta Center
Mon 09:31:56 AM 35.0528 -80.5242 60° Northeast 445 512 35,000  Level Washington Center
Mon 09:32:54 AM 35.1167 -80.3911 59° Northeast 445 512 35,000  Level Washington Center
Mon 09:33:55 AM 35.1781 -80.2650 61° Northeast 445 512 35,000  Level Washington Center
Mon 09:34:55 AM 35.2394 -80.1314 59° Northeast 440 506 35,000  Level Washington Center
Mon 09:35:56 AM 35.3072 -79.9928 59° Northeast 435 501 35,000  Level Washington Center
Mon 09:36:54 AM 35.3681 -79.8661 60° Northeast 430 495 35,000  Level Washington Center
Mon 09:37:54 AM 35.4314 -79.7319 60° Northeast 430 495 35,000  Level Washington Center
Mon 09:38:55 AM 35.4919 -79.6050 60° Northeast 435 501 35,000  Level Washington Center
Mon 09:39:55 AM 35.5550 -79.4700 58° Northeast 435 501 35,000  Level Washington Center
Mon 09:40:56 AM 35.6061 -79.3678 60° Northeast 435 501 35,000  Level Washington Center
Mon 09:41:56 AM 35.6800 -79.2078 61° Northeast 435 501 35,000  Level Washington Center
Mon 09:42:54 AM 35.7403 -79.0722 58° Northeast 435 501 35,000  Level Washington Center
Mon 09:43:54 AM 35.7978 -78.9569 63° Northeast 440 506 35,000  Level Washington Center
Mon 09:44:55 AM 35.8558 -78.8186 76° East 440 506 35,000  Level Washington Center
Mon 09:45:54 AM 35.8869 -78.6686 83° East 445 512 35,000  Level Washington Center
Mon 09:46:54 AM 35.9039 -78.4975 83° East 450 518 35,000  Level Washington Center
Mon 09:47:55 AM 35.9200 -78.3442 71° East 450 518 35,000  Level Washington Center
Mon 09:48:56 AM 35.9608 -78.1992 58° Northeast 438 504 35,000  Level Washington Center
Mon 09:49:54 AM 36.0261 -78.0678 60° Northeast 438 504 35,000  Level Washington Center
Mon 09:50:54 AM 36.0894 -77.9311 59° Northeast 445 512 35,000  Level Washington Center
Mon 09:51:55 AM 36.1525 -77.7992 59° Northeast 450 518 35,000  Level Washington Center
Mon 09:52:56 AM 36.2153 -77.6669 59° Northeast 445 512 35,000  Level Washington Center
Mon 09:53:54 AM 36.2800 -77.5347 63° Northeast 445 512 35,000  Level Washington Center
Mon 09:54:55 AM 36.3364 -77.3969 52° Northeast 439 505 35,000  Level Washington Center
Mon 09:55:55 AM 36.4111 -77.2800 41° Northeast 434 499 35,000  Level Washington Center
Mon 09:56:56 AM 36.5086 -77.1761 41° Northeast 441 507 35,000  Level Washington Center
Mon 09:57:56 AM 36.6017 -77.0769 42° Northeast 440 506 35,000  Level Washington Center
Mon 09:58:54 AM 36.6947 -76.9725 41° Northeast 440 506 35,000  Level Washington Center
Mon 09:59:54 AM 36.7897 -76.8706 42° Northeast 445 512 35,000  Level Washington Center
Mon 10:00:56 AM 36.8847 -76.7631 41° Northeast 445 512 35,000  Level Washington Center
Mon 10:01:56 AM 36.9794 -76.6606 42° Northeast 445 512 35,000  Level Washington Center
Mon 10:02:53 AM 37.0744 -76.5550 40° Northeast 445 512 35,000  Level Washington Center
Mon 10:03:54 AM 37.1711 -76.4519 42° Northeast 450 518 35,000  Level Washington Center
Mon 10:04:55 AM 37.2572 -76.3539 40° Northeast 450 518 35,000  Level Washington Center
Mon 10:05:56 AM 37.3517 -76.2528 40° Northeast 450 518 35,000  Level Washington Center
Mon 10:06:53 AM 37.4608 -76.1386 41° Northeast 450 518 35,000  Level Washington Center
Mon 10:07:55 AM 37.5572 -76.0344 42° Northeast 450 518 35,000  Level Washington Center
Mon 10:08:55 AM 37.6492 -75.9303 42° Northeast 450 518 35,000  Level Washington Center
Mon 10:09:56 AM 37.7433 -75.8228 42° Northeast 450 518 35,000  Level Washington Center
Mon 10:10:54 AM 37.8394 -75.7128 41° Northeast 450 518 35,000  Level Washington Center
Mon 10:11:55 AM 37.9333 -75.6075 41° Northeast 450 518 35,000  Level Washington Center
Mon 10:12:56 AM 38.0314 -75.4994 33° Northeast 455 524 35,000  Level Washington Center
Mon 10:13:54 AM 38.1356 -75.4122 25° Northeast 455 524 35,000  Level Washington Center
Mon 10:14:56 AM 38.2500 -75.3433 27° Northeast 449 517 35,000  Level Washington Center
Mon 10:15:54 AM 38.3500 -75.2792 27° Northeast 449 517 35,000  Level Washington Center
Mon 10:16:55 AM 38.4622 -75.2047 24° Northeast 443 510 35,000 -98 Level Washington Center
Mon 10:17:56 AM 38.5914 -75.1322 26° Northeast 448 516 34,800 -545 Descending Washington Center
Mon 10:18:56 AM 38.7056 -75.0597 28° Northeast 448 516 33,900 -915 Descending Washington Center
Mon 10:19:54 AM 38.8158 -74.9842 26° Northeast 448 516 33,000 -958 Descending Washington Center
Mon 10:20:55 AM 38.9175 -74.9194 26° Northeast 448 516 32,000 -1,623 Descending Washington Center
Mon 10:21:56 AM 39.0278 -74.8489 33° Northeast 442 509 29,700 -2,824 Descending Washington Center
Mon 10:22:54 AM 39.1375 -74.7567 40° Northeast 452 520 26,400 -3,153 Descending Washington Center
Mon 10:23:54 AM 39.2492 -74.6375 40° Northeast 467 537 23,500 -2,230 Descending Washington Center
Mon 10:24:47 AM 39.3211 -74.5603 40° Northeast 469 540 22,200 -1,487 Descending New York Center
Mon 10:25:47 AM 39.4094 -74.4628 41° Northeast 457 526 20,700 -1,636 Descending New York Center
Mon 10:26:48 AM 39.5067 -74.3550 40° Northeast 415 478 18,900 -1,361 Descending New York Center
Mon 10:27:46 AM 39.5931 -74.2594 40° Northeast 410 472 18,000 -504 Descending New York Center
Mon 10:28:47 AM 39.6792 -74.1667 41° Northeast 405 466 17,900 -1,190 Descending New York Center
Mon 10:29:47 AM 39.7544 -74.0814 40° Northeast 405 466 15,600 -2,331 Descending New York Center
Mon 10:30:48 AM 39.8406 -73.9881 28° Northeast 400 460 13,200 -1,934 Descending New York Center
Mon 10:31:48 AM 39.9403 -73.9194 30° Northeast 373 429 11,700 -1,119 Descending New York Center
Mon 10:32:46 AM 40.0189 -73.8608 30° Northeast 340 391 11,000 -356 Descending New York Center
Mon 10:33:46 AM 40.0828 -73.8122 34° Northeast 300 345 11,000 -248 Level New York Center
Mon 10:34:47 AM 40.1575 -73.7475 38° Northeast 285 328 10,500 -893 Descending New York Center
Mon 10:35:47 AM 40.2194 -73.6850 29° Northeast 280 322 9,200 -1,438 Descending New York Center
Mon 10:36:48 AM 40.2872 -73.6361 30° Northeast 275 316 7,600 -1,613 Descending New York Center
Mon 10:37:46 AM 40.3447 -73.5922 27° Northeast 270 311 6,000 -1,300 Descending New York Center
Mon 10:38:48 AM 40.4167 -73.5433 27° Northeast 270 311 5,000 -836 Descending New York Center
Mon 10:39:48 AM 40.4781 -73.5022 355° North 270 311 4,300 -508 Descending New York Center
Mon 10:40:46 AM 40.5508 -73.5106 348° North 252 290 4,000 -153 Descending New York Center
Mon 10:41:46 AM 40.6294 -73.5328 345° North 262 302 4,000 -347 Level New York Center
Mon 10:42:47 AM 40.6936 -73.5547 345° North 262 302 3,300 -496 Descending New York Center
Mon 10:43:47 AM 40.7636 -73.5794 288° West 248 285 3,000 -149 Descending New York Center
Mon 10:44:48 AM 40.7789 -73.6431 232° Southwest 206 237 3,000 -496 Level New York Center
Mon 10:45:48 AM 40.7461 -73.6992 202° Southwest 174 200 2,000 -745 Descending New York Center
Mon 10:47:13 AM 40.6833 -73.7333 217° Southwest 135 155 1,200 -662 Descending New York TRACON
Mon 10:48:13 AM 40.6667 -73.7500 217° Southwest 132 152 400 -800 Descending New York TRACON

Login

Don't have an account? Register now (free) for customized features, flight alerts, and more!